BRYA4: Kings River Nr Berryville, AR

                                SHEF ID:       BRYA4     Kings River near Berryville, AR
STATION TYPE: Stream Gauge

PRECIP STAGE RIV-FLOW BAT-LOAD
in ft cfs volt
Ccp-Rev Ccp-Rev Ccp-Rev Ccp-Rev
(America/Chicago)
11/27 00:00 0.00 4.07 306 12.24
11/27 01:00 0.00 4.08 310 12.22
11/27 02:00 0.00 4.10 317 12.21
11/27 03:00 0.00 4.11 321 12.19
11/27 04:00 0.00 4.10 317 12.17
11/27 05:00 0.00 4.11 321 12.17
11/27 06:00 0.00 4.11 321 12.14
11/27 07:00 0.00 4.14 333 12.13
11/27 08:00 0.00 4.14 333 12.12
11/27 09:00 0.00 4.10 317 12.73
11/27 10:00 0.00 4.11 321 13.68
11/27 11:00 0.00 4.10 317 13.85
11/27 12:00 0.00 4.11 321 13.66
11/27 13:00 0.00 4.11 321 13.62
11/27 14:00 0.00 4.12 325 13.56
11/27 15:00 0.00 4.08 310 13.55
11/27 16:00 0.00 4.11 321 13.54
11/27 17:00 0.00 4.11 321 13.26
11/27 18:00 0.00 4.08 310 12.83
11/27 19:00 0.00 4.05 299 12.50
11/27 20:00 0.00 4.05 299 12.31
11/27 21:00 0.00 4.08 310 12.25
11/27 22:00 0.00 4.04 295 12.23
11/27 23:00 0.00 4.06 302 12.21
Data processed at Fri 28Nov2025 05:22 GMT

NOTICE: If you are parsing this page

Please convert to using our Data API. Starting January 1st, 2026 we will be migrating to: https://water.usace.army.mil with modern pages rendered in JavaScript. You will no longer be able to scrape this page! CWMSDataAPI (CDA)

Timeseries IDs (TSIDs)

TSIDs used from left to right in the data table
BERR.Precip-Inc.Total.1Hour.1Hour.Ccp-Rev
BERR.Stage.Inst.1Hour.0.Ccp-Rev
BERR.Flow.Inst.1Hour.0.Ccp-Rev
BERR.Volt-Battery Load.Inst.1Hour.0.Ccp-Rev

                            

All information presented herein is the property of the government of the United States of America and may be revised or deleted at any time without prior notice. Dissemination of this information without the expressed written consent of the Public Affairs Office, Tulsa District U.S. Army Corps of Engineers is strictly prohibited. These data are gathered electronically and, as presented, have NOT undergone any form of quality control. These data are NOT guaranteed to be valid or correct.